Time;durP1;ratioP1;P1;durP2;ratioP2;P2;SDS_P1;SDS_P2;PMS_P1;PMS_P2;Temp;Humidity;BMP_temperature;BMP_pressure;BME280_temperature;BME280_humidity;BME280_pressure;Samples;Min_cycle;Max_cycle;Signal;HPM_P1;HPM_P2
2020/12/18 00:00:41;;;;;;;20.30;13.30;;;;;;;5.97;80.96;97469.06;4957375;28;20058;-74
2020/12/18 00:03:08;;;;;;;19.77;13.52;;;;;;;5.95;80.56;97473.53;4959615;28;20047;-73
2020/12/18 00:05:35;;;;;;;17.05;12.35;;;;;;;5.92;80.86;97473.75;4971375;29;20090;-74
2020/12/18 00:08:01;;;;;;;18.85;13.93;;;;;;;5.91;80.84;97474.72;4968738;28;20502;-74
2020/12/18 00:10:27;;;;;;;18.88;12.35;;;;;;;5.89;80.93;97471.44;4967909;28;20066;-74
2020/12/18 00:12:54;;;;;;;21.92;13.20;;;;;;;5.89;80.48;97476.63;4957935;29;20517;-75
2020/12/18 00:15:25;;;;;;;18.80;12.75;;;;;;;5.87;80.66;97474.16;4957332;29;20054;-75
2020/12/18 00:17:52;;;;;;;18.15;13.13;;;;;;;5.88;80.32;97469.78;4957481;28;20058;-75
2020/12/18 00:20:19;;;;;;;18.85;12.32;;;;;;;5.87;80.54;97474.16;4956949;28;20548;-75
2020/12/18 00:22:47;;;;;;;19.20;13.60;;;;;;;5.87;80.48;97468.16;4956931;28;20047;-76
2020/12/18 00:25:13;;;;;;;18.58;13.07;;;;;;;5.86;80.45;97469.09;4956816;28;20537;-74
2020/12/18 00:27:40;;;;;;;17.50;12.55;;;;;;;5.84;80.18;97473.59;4957086;28;20077;-75
2020/12/18 00:30:08;;;;;;;18.98;12.90;;;;;;;5.83;80.56;97471.97;4956779;28;20051;-74
2020/12/18 00:32:36;;;;;;;18.40;13.32;;;;;;;5.83;79.94;97471.97;4956865;28;20502;-76
2020/12/18 00:35:04;;;;;;;18.35;12.60;;;;;;;5.81;80.14;97476.44;4956559;28;20417;-75
2020/12/18 00:37:31;;;;;;;18.95;12.18;;;;;;;5.78;79.99;97475.75;4956955;28;20490;-75
2020/12/18 00:39:57;;;;;;;18.55;13.15;;;;;;;5.76;80.46;97472.47;4956747;28;20066;-75
2020/12/18 00:42:24;;;;;;;25.95;15.00;;;;;;;5.74;80.22;97474.38;4956960;28;20058;-75
2020/12/18 00:44:50;;;;;;;21.75;13.95;;;;;;;5.71;80.33;97477.22;4960356;28;20051;-73
2020/12/18 00:47:17;;;;;;;22.08;15.13;;;;;;;5.69;80.02;97471.34;4958754;28;20051;-74
2020/12/18 00:49:44;;;;;;;22.73;14.45;;;;;;;5.66;80.17;97473.38;4956944;28;20130;-76
2020/12/18 00:52:10;;;;;;;24.67;14.50;;;;;;;5.64;80.39;97473.53;4956719;28;20059;-75
2020/12/18 00:54:38;;;;;;;21.33;14.27;;;;;;;5.62;80.45;97475.41;4956572;28;20418;-75
2020/12/18 00:57:04;;;;;;;17.00;11.68;;;;;;;5.59;80.44;97473.06;4956563;28;20047;-75
2020/12/18 00:59:31;;;;;;;15.65;11.88;;;;;;;5.58;80.70;97474.03;4955499;28;20509;-75
2020/12/18 01:01:58;;;;;;;18.00;12.38;;;;;;;5.57;80.68;97483.56;4956457;28;20047;-76
2020/12/18 01:04:25;;;;;;;19.00;12.82;;;;;;;5.57;80.31;97485.31;4956295;29;20055;-75
2020/12/18 01:06:53;;;;;;;16.80;11.98;;;;;;;5.56;80.30;97492.28;4956348;29;20054;-76
2020/12/18 01:09:20;;;;;;;16.27;12.05;;;;;;;5.56;80.03;97487.09;4956064;28;20506;-75
2020/12/18 01:11:47;;;;;;;18.27;12.43;;;;;;;5.56;80.07;97494.84;4956051;29;20062;-75
2020/12/18 01:14:14;;;;;;;18.33;11.80;;;;;;;5.56;80.23;97494.03;4956338;28;20059;-75
2020/12/18 01:16:40;;;;;;;15.43;12.13;;;;;;;5.55;79.97;97497.56;4956078;29;20055;-75
2020/12/18 01:19:07;;;;;;;16.73;12.90;;;;;;;5.49;79.96;97490.34;4955812;28;20055;-75
2020/12/18 01:21:36;;;;;;;17.58;13.45;;;;;;;5.47;80.19;97489.66;4959843;29;20064;-73
2020/12/18 01:24:02;;;;;;;16.33;12.10;;;;;;;5.43;79.44;97485.66;4976350;28;20051;-74
2020/12/18 01:26:29;;;;;;;18.00;11.95;;;;;;;5.37;80.21;97482.63;4975421;29;20061;-74
2020/12/18 01:28:56;;;;;;;15.60;11.00;;;;;;;5.34;79.97;97482.06;4966513;28;20062;-74
2020/12/18 01:31:23;;;;;;;17.85;12.57;;;;;;;5.32;80.23;97492.53;4955506;28;20055;-74
2020/12/18 01:33:51;;;;;;;16.30;11.68;;;;;;;5.31;80.19;97479.72;4956257;29;20054;-75
2020/12/18 01:36:18;;;;;;;17.27;10.98;;;;;;;5.29;80.17;97494.56;4957791;29;20051;-73
2020/12/18 01:38:45;;;;;;;17.10;11.48;;;;;;;5.25;80.06;97499.19;4974563;28;20051;-74
2020/12/18 01:41:11;;;;;;;16.80;11.10;;;;;;;5.21;80.39;97500.38;4972687;28;20047;-73
2020/12/18 01:43:38;;;;;;;16.10;10.32;;;;;;;5.17;80.59;97501.56;4955817;28;20051;-75
2020/12/18 01:46:09;;;;;;;14.68;10.23;;;;;;;5.14;80.60;97505.22;4955482;28;20058;-75
2020/12/18 01:48:38;;;;;;;16.35;9.55;;;;;;;5.11;80.29;97494.31;4955595;28;20525;-74
2020/12/18 01:51:06;;;;;;;15.35;10.20;;;;;;;5.09;80.44;97501.34;4955105;29;20055;-74
2020/12/18 01:53:33;;;;;;;11.85;8.65;;;;;;;5.05;80.95;97503.41;4955585;28;20059;-75
2020/12/18 01:56:01;;;;;;;13.90;9.13;;;;;;;5.04;80.57;97506.91;4955239;28;20058;-75
2020/12/18 01:58:32;;;;;;;13.27;8.63;;;;;;;5.01;80.67;97498.56;4955662;29;20054;-74
2020/12/18 02:01:02;;;;;;;11.55;8.40;;;;;;;4.97;80.96;97500.59;4956280;29;20055;-75
2020/12/18 02:03:29;;;;;;;15.43;7.65;;;;;;;4.94;80.59;97501.69;4956237;28;20051;-75
2020/12/18 02:05:58;;;;;;;15.65;9.05;;;;;;;4.90;80.29;97500.28;4955165;28;20110;-75
2020/12/18 02:08:26;;;;;;;12.95;7.65;;;;;;;4.86;80.62;97509.22;4955036;28;20051;-75
2020/12/18 02:10:55;;;;;;;12.90;7.65;;;;;;;4.82;80.65;97502.66;4953682;28;20114;-75
2020/12/18 02:13:22;;;;;;;12.90;8.10;;;;;;;4.80;80.61;97507.13;4955187;28;20065;-74
2020/12/18 02:15:50;;;;;;;15.55;7.47;;;;;;;4.80;80.18;97509.72;4954927;28;20051;-75
2020/12/18 02:18:17;;;;;;;13.65;8.07;;;;;;;4.78;80.43;97510.78;4955058;28;20051;-76
2020/12/18 02:20:45;;;;;;;13.25;7.00;;;;;;;4.75;80.43;97517.84;4954553;28;20498;-75
2020/12/18 02:23:13;;;;;;;14.65;8.43;;;;;;;4.71;80.17;97515.63;4954823;28;20073;-75
2020/12/18 02:25:41;;;;;;;11.07;6.95;;;;;;;4.67;80.44;97515.03;4954487;28;20054;-75
2020/12/18 02:28:10;;;;;;;13.77;7.13;;;;;;;4.64;80.53;97522.22;4954874;28;20051;-75
2020/12/18 02:30:36;;;;;;;10.43;7.32;;;;;;;4.62;80.76;97516.34;4954716;28;20051;-74
2020/12/18 02:33:05;;;;;;;12.52;7.93;;;;;;;4.61;80.90;97519.88;4954858;29;20051;-76
2020/12/18 02:35:32;;;;;;;11.32;7.60;;;;;;;4.61;80.91;97525.84;4954612;28;20430;-75
2020/12/18 02:37:58;;;;;;;11.32;7.18;;;;;;;4.58;80.46;97514.97;4954345;28;20055;-75
2020/12/18 02:40:25;;;;;;;10.30;6.65;;;;;;;4.54;80.88;97515.19;4954275;29;20058;-75
2020/12/18 02:42:52;;;;;;;9.98;7.32;;;;;;;4.53;80.74;97510.16;4954808;29;20047;-75
2020/12/18 02:45:20;;;;;;;9.70;7.03;;;;;;;4.51;80.77;97507.69;4954480;29;20047;-74
2020/12/18 02:47:46;;;;;;;11.40;6.97;;;;;;;4.49;80.67;97507.00;4954414;28;20054;-75
2020/12/18 02:50:13;;;;;;;9.23;7.38;;;;;;;4.49;80.73;97501.00;4954144;28;20074;-75
2020/12/18 02:52:40;;;;;;;12.85;7.72;;;;;;;4.50;81.23;97502.63;4954317;28;20054;-75
2020/12/18 02:55:07;;;;;;;10.15;7.47;;;;;;;4.50;80.88;97497.47;4954377;28;20051;-75
2020/12/18 02:57:33;;;;;;;13.10;8.23;;;;;;;4.47;81.35;97490.78;4954500;29;20070;-74
2020/12/18 03:00:00;;;;;;;9.70;6.63;;;;;;;4.48;80.95;97483.84;4954053;28;20055;-75
2020/12/18 03:02:27;;;;;;;14.27;7.63;;;;;;;4.48;81.43;97495.03;4954128;28;20049;-75
2020/12/18 03:04:53;;;;;;;10.45;7.47;;;;;;;4.48;80.93;97492.44;4954663;28;20502;-74
2020/12/18 03:07:20;;;;;;;9.43;6.80;;;;;;;4.51;81.00;97483.63;4953948;28;20043;-75
2020/12/18 03:09:47;;;;;;;13.80;6.85;;;;;;;4.53;81.07;97482.56;4953928;28;20082;-76
2020/12/18 03:12:13;;;;;;;10.13;7.10;;;;;;;4.55;81.03;97479.84;4954173;28;20055;-74
2020/12/18 03:14:40;;;;;;;12.88;8.60;;;;;;;4.59;80.93;97480.41;4954178;28;20062;-75
2020/12/18 03:17:06;;;;;;;10.38;7.25;;;;;;;4.61;81.23;97481.09;4953683;28;20403;-75
2020/12/18 03:19:34;;;;;;;10.75;7.32;;;;;;;4.62;81.01;97481.00;4953673;28;20073;-75
2020/12/18 03:22:00;;;;;;;11.55;7.70;;;;;;;4.63;81.48;97476.63;4954222;28;20051;-75
2020/12/18 03:24:27;;;;;;;10.48;7.35;;;;;;;4.65;81.13;97483.31;4958150;29;20051;-75
2020/12/18 03:26:53;;;;;;;10.57;7.45;;;;;;;4.66;81.40;97481.59;4958096;28;20058;-75
2020/12/18 03:29:19;;;;;;;7.55;6.53;;;;;;;4.68;81.23;97484.84;4957560;28;20055;-76
2020/12/18 03:31:46;;;;;;;11.43;7.50;;;;;;;4.70;81.20;97475.19;4957873;29;20053;-74
2020/12/18 03:34:12;;;;;;;12.00;6.97;;;;;;;4.74;81.33;97474.00;4957940;28;20139;-75
2020/12/18 03:36:40;;;;;;;11.88;7.70;;;;;;;4.77;81.13;97472.94;4957964;28;20059;-75
2020/12/18 03:39:08;;;;;;;9.30;7.40;;;;;;;4.78;80.94;97474.59;4957716;28;20059;-75
2020/12/18 03:41:34;;;;;;;10.00;6.95;;;;;;;4.81;81.50;97464.84;4957798;29;20115;-75
2020/12/18 03:44:01;;;;;;;10.00;6.47;;;;;;;4.84;81.47;97464.56;4957647;28;20047;-75
2020/12/18 03:46:28;;;;;;;14.55;6.85;;;;;;;4.86;81.36;97460.09;4957627;28;20422;-75
2020/12/18 03:48:54;;;;;;;14.23;7.60;;;;;;;4.87;80.69;97461.72;4957451;28;20051;-75
2020/12/18 03:51:21;;;;;;;10.75;6.57;;;;;;;4.90;81.24;97465.84;4957408;29;20395;-75
2020/12/18 03:53:49;;;;;;;11.50;6.05;;;;;;;4.92;80.99;97467.38;4957471;28;20494;-75
2020/12/18 03:56:15;;;;;;;9.48;6.55;;;;;;;4.95;80.76;97467.09;4957806;28;20141;-75
2020/12/18 03:58:42;;;;;;;9.05;5.85;;;;;;;4.97;80.54;97468.75;4957528;28;20051;-76
2020/12/18 04:01:08;;;;;;;11.75;7.35;;;;;;;4.99;80.74;97469.47;4957243;28;20063;-75
2020/12/18 04:03:35;;;;;;;14.10;7.60;;;;;;;4.99;80.78;97461.69;4957158;28;20058;-75
2020/12/18 04:06:01;;;;;;;7.78;6.95;;;;;;;5.00;80.92;97465.91;4957480;28;20418;-75
2020/12/18 04:08:28;;;;;;;9.43;6.72;;;;;;;4.98;80.61;97466.03;4957499;28;20062;-75
2020/12/18 04:11:07;;;;;;;10.85;8.00;;;;;;;4.99;80.79;97469.47;4968095;28;20051;-74
2020/12/18 04:13:34;;;;;;;11.13;6.85;;;;;;;5.00;80.73;97463.31;4976321;28;20071;-73
2020/12/18 04:16:01;;;;;;;8.70;6.80;;;;;;;5.02;81.15;97464.03;4975715;28;20071;-74
2020/12/18 04:18:27;;;;;;;10.82;7.93;;;;;;;5.02;81.00;97461.44;4957710;29;20451;-74
2020/12/18 04:20:54;;;;;;;9.18;6.43;;;;;;;5.03;80.85;97458.75;4957091;28;20421;-75
2020/12/18 04:23:21;;;;;;;9.68;7.05;;;;;;;5.05;81.01;97456.00;4972980;28;20035;-73
2020/12/18 04:25:47;;;;;;;9.90;7.63;;;;;;;5.07;81.00;97454.13;4978753;29;20134;-74
2020/12/18 04:28:14;;;;;;;8.13;6.28;;;;;;;5.09;80.85;97462.56;4980418;28;20049;-74
2020/12/18 04:30:43;;;;;;;9.50;7.53;;;;;;;5.10;80.97;97462.44;4979733;28;20055;-73
2020/12/18 04:33:09;;;;;;;15.02;9.38;;;;;;;5.13;80.49;97458.78;4979187;28;20045;-74
2020/12/18 04:35:36;;;;;;;9.45;7.63;;;;;;;5.13;80.35;97456.19;4978577;28;20058;-74
2020/12/18 04:38:02;;;;;;;11.38;7.07;;;;;;;5.11;80.75;97456.31;4979549;28;20047;-73
2020/12/18 04:40:29;;;;;;;14.70;8.63;;;;;;;5.12;81.03;97463.16;4973093;29;20055;-74
2020/12/18 04:42:56;;;;;;;13.60;7.93;;;;;;;5.11;81.10;97465.84;4972231;28;20051;-74
2020/12/18 04:45:24;;;;;;;19.45;7.53;;;;;;;5.12;81.23;97462.34;4977772;28;20051;-74
2020/12/18 04:47:55;;;;;;;13.82;7.85;;;;;;;5.12;80.90;97459.75;4978129;29;20055;-73
2020/12/18 04:50:21;;;;;;;15.88;8.25;;;;;;;5.13;80.93;97466.53;4976850;28;20058;-73
2020/12/18 04:52:48;;;;;;;20.88;8.73;;;;;;;5.15;81.29;97467.25;4971629;28;20051;-74
2020/12/18 04:55:18;;;;;;;17.58;9.38;;;;;;;5.14;81.10;97471.59;4960231;29;20516;-73
2020/12/18 04:57:47;;;;;;;16.67;7.80;;;;;;;5.11;80.71;97471.03;4958171;28;20055;-75
2020/12/18 05:00:13;;;;;;;16.35;7.90;;;;;;;5.06;80.28;97473.19;4957126;28;20062;-75
2020/12/18 05:02:41;;;;;;;14.05;8.07;;;;;;;5.02;80.54;97476.97;4956608;28;20138;-74
2020/12/18 05:05:10;;;;;;;21.10;7.20;;;;;;;4.98;80.52;97472.97;4956688;28;20063;-75
2020/12/18 05:07:36;;;;;;;19.13;8.25;;;;;;;4.94;80.41;97470.66;4956499;28;20053;-74
2020/12/18 05:10:07;;;;;;;17.55;7.40;;;;;;;4.91;79.81;97478.63;4956838;28;20057;-75
2020/12/18 05:12:34;;;;;;;14.32;7.18;;;;;;;4.85;79.87;97481.72;4956547;28;20055;-75
2020/12/18 05:15:01;;;;;;;15.27;7.78;;;;;;;4.81;80.08;97485.53;4956466;28;20051;-75
2020/12/18 05:17:28;;;;;;;19.05;8.05;;;;;;;4.76;80.09;97469.53;4956395;29;20051;-75
2020/12/18 05:19:56;;;;;;;16.15;8.55;;;;;;;4.73;80.32;97482.72;4956388;28;20055;-76
2020/12/18 05:22:24;;;;;;;12.57;6.60;;;;;;;4.71;80.23;97474.28;4956050;28;20528;-75
2020/12/18 05:24:53;;;;;;;20.05;7.38;;;;;;;4.68;80.14;97477.94;4955437;28;20047;-75
2020/12/18 05:27:21;;;;;;;14.65;6.65;;;;;;;4.63;80.28;97476.63;4952801;28;20053;-75
2020/12/18 05:29:49;;;;;;;13.60;7.15;;;;;;;4.60;79.99;97482.06;4972925;28;20090;-75
2020/12/18 05:32:16;;;;;;;15.68;8.68;;;;;;;4.54;80.18;97484.19;4976535;29;20043;-74
2020/12/18 05:34:43;;;;;;;14.57;7.63;;;;;;;4.50;80.55;97493.16;4976764;28;20046;-74
2020/12/18 05:37:13;;;;;;;13.25;8.13;;;;;;;4.48;80.65;97482.09;4975778;28;20050;-75
2020/12/18 05:39:40;;;;;;;14.23;8.93;;;;;;;4.44;80.25;97480.72;4976106;29;20043;-74
2020/12/18 05:42:07;;;;;;;12.13;7.60;;;;;;;4.41;80.61;97473.19;4975455;29;20059;-75
2020/12/18 05:44:34;;;;;;;14.48;8.57;;;;;;;4.41;80.43;97488.69;4974765;28;20047;-75
2020/12/18 05:47:05;;;;;;;13.75;8.05;;;;;;;4.38;80.74;97483.75;4975320;28;20548;-74
2020/12/18 05:49:33;;;;;;;14.63;8.55;;;;;;;4.38;80.41;97488.94;4975136;28;20047;-75
2020/12/18 05:52:01;;;;;;;14.88;8.05;;;;;;;4.39;80.74;97482.81;4966765;29;20047;-74
2020/12/18 05:54:33;;;;;;;13.60;7.50;;;;;;;4.40;80.70;97486.25;4960108;29;20118;-75
2020/12/18 05:57:09;;;;;;;16.25;8.55;;;;;;;4.40;81.05;97486.25;4956449;29;20059;-74
2020/12/18 05:59:40;;;;;;;14.35;8.18;;;;;;;4.43;80.61;97491.16;4955478;29;20560;-74
2020/12/18 06:02:10;;;;;;;13.43;7.88;;;;;;;4.43;80.56;97491.97;4956053;29;20047;-75
2020/12/18 06:04:37;;;;;;;9.43;6.82;;;;;;;4.42;80.67;97482.59;4955893;29;20055;-75
2020/12/18 06:07:03;;;;;;;12.30;8.40;;;;;;;4.41;80.30;97487.88;4955911;28;20435;-74
2020/12/18 06:09:30;;;;;;;15.52;7.97;;;;;;;4.38;80.55;97491.50;4958178;28;20077;-74
2020/12/18 06:11:58;;;;;;;11.45;7.20;;;;;;;4.33;80.34;97488.47;4962050;28;20047;-75
2020/12/18 06:14:24;;;;;;;11.10;7.07;;;;;;;4.31;80.78;97485.19;4970493;28;20046;-75
2020/12/18 06:16:52;;;;;;;12.65;6.75;;;;;;;4.31;80.76;97498.13;4974116;28;20057;-75
2020/12/18 06:19:20;;;;;;;12.85;5.88;;;;;;;4.28;80.38;97488.00;4954954;29;20047;-75
2020/12/18 06:21:54;;;;;;;8.32;6.47;;;;;;;4.27;80.47;97491.53;4954909;28;20050;-76
2020/12/18 06:24:39;;;;;;;9.98;6.85;;;;;;;4.26;80.31;97495.06;4955359;29;20047;-76
2020/12/18 06:27:08;;;;;;;10.68;8.00;;;;;;;4.26;80.76;97488.16;4968720;28;20042;-76
2020/12/18 06:29:35;;;;;;;10.55;7.32;;;;;;;4.25;80.97;97490.84;4974448;28;20073;-75
2020/12/18 06:32:23;;;;;;;10.98;7.63;;;;;;;4.24;81.20;97492.59;4974666;28;20042;-75
2020/12/18 06:34:50;;;;;;;16.33;7.97;;;;;;;4.23;80.61;97483.19;4956604;28;20071;-75
2020/12/18 06:37:30;;;;;;;12.10;7.22;;;;;;;4.24;80.83;97489.19;4954687;28;20529;-74
2020/12/18 06:39:58;;;;;;;15.82;7.57;;;;;;;4.24;80.77;97492.59;4955530;29;20055;-77
2020/12/18 06:42:26;;;;;;;16.42;7.45;;;;;;;4.21;80.84;97484.28;4954721;28;20055;-75
2020/12/18 06:44:54;;;;;;;13.55;8.30;;;;;;;4.20;81.42;97487.78;4954837;29;20051;-77
2020/12/18 06:47:28;;;;;;;16.23;8.10;;;;;;;4.20;81.53;97480.03;4949774;28;20062;-75
2020/12/18 06:50:08;;;;;;;10.55;7.30;;;;;;;4.21;81.11;97481.69;4967503;28;20047;-76
2020/12/18 06:52:43;;;;;;;13.98;8.02;;;;;;;4.21;81.22;97476.53;4954378;29;20039;-76
2020/12/18 06:55:11;;;;;;;15.88;8.35;;;;;;;4.21;81.06;97481.69;4953689;28;20129;-74
2020/12/18 06:57:39;;;;;;;11.55;7.90;;;;;;;4.21;81.25;97479.91;4953336;28;20051;-75
2020/12/18 07:00:26;;;;;;;9.60;7.13;;;;;;;4.21;81.05;97472.16;4953195;28;20502;-76
2020/12/18 07:02:53;;;;;;;12.05;8.88;;;;;;;4.20;81.31;97480.03;4955257;28;20043;-74
2020/12/18 07:05:30;;;;;;;14.70;8.15;;;;;;;4.21;81.36;97485.09;4956124;28;20138;-76
2020/12/18 07:07:58;;;;;;;14.13;8.48;;;;;;;4.22;81.48;97489.31;4953978;29;20619;-76
2020/12/18 07:10:26;;;;;;;15.38;9.13;;;;;;;4.22;80.96;97480.72;4953573;29;20089;-75
2020/12/18 07:12:57;;;;;;;15.38;9.25;;;;;;;4.21;81.39;97486.84;4953150;28;20530;-74
2020/12/18 07:15:26;;;;;;;14.98;9.30;;;;;;;4.22;81.51;97488.47;4954493;29;20058;-75
2020/12/18 07:17:55;;;;;;;15.10;9.75;;;;;;;4.22;81.19;97483.31;4954421;29;20062;-74
2020/12/18 07:20:27;;;;;;;16.77;10.73;;;;;;;4.22;81.55;97488.47;4954372;28;20418;-75
2020/12/18 07:22:53;;;;;;;15.02;9.52;;;;;;;4.18;81.23;97487.09;4954630;29;20077;-75
2020/12/18 07:25:20;;;;;;;19.50;11.25;;;;;;;4.17;81.24;97482.88;4954768;29;20051;-75
2020/12/18 07:27:47;;;;;;;16.55;9.93;;;;;;;4.17;81.37;97481.09;4954899;29;20527;-75
2020/12/18 07:30:14;;;;;;;20.05;10.35;;;;;;;4.20;81.34;97482.63;4954417;29;20051;-74
2020/12/18 07:32:42;;;;;;;19.85;10.38;;;;;;;4.18;81.42;97492.28;4954743;29;20047;-75
2020/12/18 07:35:12;;;;;;;16.35;10.10;;;;;;;4.16;81.88;97483.81;4954962;29;20494;-75
2020/12/18 07:37:40;;;;;;;17.63;10.32;;;;;;;4.16;81.47;97478.66;4955046;28;20051;-74
2020/12/18 07:40:06;;;;;;;15.82;9.05;;;;;;;4.16;81.93;97479.47;4954077;29;20056;-75
2020/12/18 07:42:33;;;;;;;19.80;10.40;;;;;;;4.18;82.04;97481.94;4955434;29;20058;-75
2020/12/18 07:45:06;;;;;;;15.90;10.82;;;;;;;4.19;82.03;97484.38;4955340;29;20456;-75
2020/12/18 07:47:35;;;;;;;12.95;9.43;;;;;;;4.20;81.91;97480.03;4959290;28;20058;-75
2020/12/18 07:50:04;;;;;;;19.52;9.75;;;;;;;4.21;81.83;97481.69;4974114;28;20051;-75
2020/12/18 07:52:31;;;;;;;18.08;11.90;;;;;;;4.20;81.84;97475.72;4974371;28;20043;-74
2020/12/18 07:54:57;;;;;;;17.45;11.90;;;;;;;4.20;82.11;97474.88;4974598;28;20421;-75
2020/12/18 07:57:24;;;;;;;15.23;10.55;;;;;;;4.19;81.73;97483.56;4974263;28;20051;-75
2020/12/18 07:59:51;;;;;;;17.35;10.85;;;;;;;4.19;81.93;97480.97;4973640;28;20046;-75
2020/12/18 08:02:22;;;;;;;18.83;11.75;;;;;;;4.19;82.17;97473.25;4974076;28;20051;-75
2020/12/18 08:04:57;;;;;;;16.92;11.48;;;;;;;4.21;82.41;97481.69;4974429;28;20055;-75
2020/12/18 08:07:24;;;;;;;17.27;10.70;;;;;;;4.23;82.29;97480.63;4973257;28;20054;-74
2020/12/18 08:09:59;;;;;;;18.13;11.10;;;;;;;4.24;82.40;97477.13;4976856;28;20056;-74
2020/12/18 08:12:29;;;;;;;16.00;11.70;;;;;;;4.28;82.31;97483.66;4978580;28;20078;-77
2020/12/18 08:15:09;;;;;;;14.45;9.50;;;;;;;4.32;82.42;97484.25;4978830;28;20060;-77
2020/12/18 08:17:35;;;;;;;16.73;9.85;;;;;;;4.33;82.39;97484.13;4977337;28;20053;-77
2020/12/18 08:20:05;;;;;;;16.75;10.45;;;;;;;4.36;82.20;97488.22;4977717;28;20421;-76
2020/12/18 08:22:35;;;;;;;16.70;11.30;;;;;;;4.38;82.08;97481.19;4977809;28;20050;-77
2020/12/18 08:25:04;;;;;;;20.23;12.50;;;;;;;4.41;82.24;97483.50;4977749;28;20047;-77
2020/12/18 08:27:39;;;;;;;22.15;12.02;;;;;;;4.44;82.08;97491.03;4977818;28;20541;-76
2020/12/18 08:30:07;;;;;;;20.55;12.23;;;;;;;4.47;81.88;97482.22;4977058;28;20051;-77
2020/12/18 08:32:35;;;;;;;20.63;11.57;;;;;;;4.51;81.94;97478.44;4978122;28;20073;-76
2020/12/18 08:35:05;;;;;;;18.45;10.77;;;;;;;4.56;81.72;97480.66;4978077;28;20047;-77
2020/12/18 08:37:32;;;;;;;17.67;11.50;;;;;;;4.59;81.85;97481.25;4980794;28;20062;-76
2020/12/18 08:39:58;;;;;;;15.52;10.40;;;;;;;4.64;81.76;97493.81;4983205;28;20031;-78
2020/12/18 08:42:25;;;;;;;19.02;10.52;;;;;;;4.65;81.57;97487.69;4979079;29;20328;-76
2020/12/18 08:44:52;;;;;;;21.52;12.13;;;;;;;4.66;81.35;97489.34;4968358;28;20051;-77
2020/12/18 08:47:23;;;;;;;19.17;12.27;;;;;;;4.68;81.58;97490.00;4958383;28;20051;-77
2020/12/18 08:49:50;;;;;;;17.48;11.35;;;;;;;4.72;81.50;97486.25;4957521;29;20138;-77
2020/12/18 08:52:23;;;;;;;20.63;13.77;;;;;;;4.75;81.53;97497.16;4958011;29;20063;-77
2020/12/18 08:55:00;;;;;;;18.05;11.55;;;;;;;4.81;81.26;97493.28;4958145;29;20055;-76
2020/12/18 08:57:29;;;;;;;21.70;13.07;;;;;;;4.82;80.96;97494.91;4958055;28;20055;-76
2020/12/18 08:59:58;;;;;;;18.48;11.90;;;;;;;4.84;81.06;97500.78;4957431;29;20043;-75
2020/12/18 09:02:25;;;;;;;18.40;12.35;;;;;;;4.85;81.14;97497.22;4957931;29;20127;-76
2020/12/18 09:05:08;;;;;;;20.15;13.25;;;;;;;4.86;81.35;97501.47;4957543;29;20051;-76
2020/12/18 09:07:42;;;;;;;;;;;;;;;4.90;81.25;97497.69;4958501;29;20055;-77
2020/12/18 09:10:10;;;;;;;18.40;12.00;;;;;;;4.92;80.99;97507.91;4957255;29;20301;-77
2020/12/18 09:12:41;;;;;;;20.20;12.88;;;;;;;4.94;81.21;97495.66;4938680;29;20513;-77
2020/12/18 09:17:57;;;;;;;18.42;11.32;;;;;;;5.02;80.94;97495.06;4912020;29;20124;-80
2020/12/18 09:20:25;;;;;;;17.35;10.65;;;;;;;5.07;80.51;97500.66;4912191;29;20058;-81
2020/12/18 09:22:58;;;;;;;15.15;11.15;;;;;;;5.10;80.31;97496.06;4912062;29;20480;-81
2020/12/18 09:25:27;;;;;;;15.60;10.48;;;;;;;5.14;80.46;97492.28;4912293;29;20052;-81
2020/12/18 09:27:59;;;;;;;19.75;11.18;;;;;;;5.17;80.05;97491.22;4912093;29;20059;-81
2020/12/18 09:30:28;;;;;;;17.77;11.32;;;;;;;5.20;80.09;97490.94;4912346;29;20057;-81
2020/12/18 09:33:33;;;;;;;14.18;10.63;;;;;;;5.21;80.11;97492.59;4913976;29;20074;-81
2020/12/18 09:36:07;;;;;;;17.40;10.60;;;;;;;5.24;80.43;97500.09;4912862;29;20056;-81
2020/12/18 09:38:38;;;;;;;15.15;11.00;;;;;;;5.26;80.14;97495.63;4912024;29;20191;-81
2020/12/18 09:41:07;;;;;;;14.35;10.10;;;;;;;5.29;80.09;97490.22;4912650;29;20064;-80
2020/12/18 09:43:36;;;;;;;15.05;11.20;;;;;;;5.33;80.08;97486.41;4919849;29;20032;-80
2020/12/18 09:46:05;;;;;;;13.63;10.25;;;;;;;5.36;80.14;97487.94;4920780;29;20055;-81
2020/12/18 09:48:32;;;;;;;15.30;10.85;;;;;;;5.40;80.01;97483.31;4917497;29;20063;-80
2020/12/18 09:50:59;;;;;;;18.50;10.75;;;;;;;5.44;79.87;97479.53;4917127;29;20146;-80
2020/12/18 09:53:26;;;;;;;14.50;10.25;;;;;;;5.47;79.82;97481.88;4911903;29;20147;-80
2020/12/18 09:55:55;;;;;;;16.83;11.43;;;;;;;5.48;79.45;97483.50;4905399;29;20108;-80
2020/12/18 09:58:24;;;;;;;19.45;14.15;;;;;;;5.50;79.67;97477.25;4926377;29;20174;-80
2020/12/18 10:00:52;;;;;;;16.95;11.40;;;;;;;5.53;79.40;97471.84;4926126;29;20048;-80
2020/12/18 10:03:18;;;;;;;16.92;12.32;;;;;;;5.55;79.46;97474.28;4927128;29;20056;-81
2020/12/18 10:05:45;;;;;;;18.63;13.57;;;;;;;5.56;79.32;97475.94;4933760;29;20112;-80
2020/12/18 10:08:12;;;;;;;20.73;12.82;;;;;;;5.58;79.47;97468.84;4928407;29;20060;-80
2020/12/18 10:10:39;;;;;;;17.73;13.48;;;;;;;5.62;79.38;97470.25;4920394;29;20068;-80
2020/12/18 10:13:07;;;;;;;16.80;12.15;;;;;;;5.63;79.08;97477.03;4903718;29;20048;-80
2020/12/18 10:15:33;;;;;;;19.40;12.13;;;;;;;5.65;79.16;97458.81;4911208;29;20049;-80
2020/12/18 10:18:00;;;;;;;17.55;12.65;;;;;;;5.67;79.14;97462.91;4906887;29;20059;-80
2020/12/18 10:20:27;;;;;;;15.85;11.68;;;;;;;5.71;79.36;97466.06;4911073;29;20112;-80
2020/12/18 10:22:54;;;;;;;15.70;11.15;;;;;;;5.76;79.30;97466.47;4909484;29;20056;-80
2020/12/18 10:25:20;;;;;;;15.13;11.75;;;;;;;5.81;79.26;97450.56;4910028;29;20139;-81
2020/12/18 10:27:47;;;;;;;16.83;11.38;;;;;;;5.86;79.06;97450.97;4912422;29;20476;-80
2020/12/18 10:30:14;;;;;;;15.10;11.63;;;;;;;5.91;78.64;97454.81;4928754;29;20052;-80
2020/12/18 10:32:42;;;;;;;16.38;10.95;;;;;;;5.98;78.74;97442.19;4920874;29;20076;-80
2020/12/18 10:35:09;;;;;;;15.35;10.35;;;;;;;6.04;78.64;97439.06;4921956;29;20537;-80
2020/12/18 10:37:36;;;;;;;15.43;10.20;;;;;;;6.11;78.35;97431.59;4923193;29;20055;-80
2020/12/18 10:40:05;;;;;;;15.52;10.68;;;;;;;6.15;78.28;97436.38;4916922;29;20108;-80
2020/12/18 10:42:32;;;;;;;16.45;11.05;;;;;;;6.22;77.99;97428.88;4903408;29;20059;-78
2020/12/18 10:44:58;;;;;;;14.50;11.60;;;;;;;6.28;77.82;97436.13;4904544;29;20052;-80
2020/12/18 10:47:26;;;;;;;14.18;11.30;;;;;;;6.33;77.37;97427.94;4902295;29;20392;-80
2020/12/18 10:49:53;;;;;;;18.70;12.13;;;;;;;6.38;77.15;97431.78;4899771;29;20059;-79
2020/12/18 10:52:21;;;;;;;14.32;10.88;;;;;;;6.45;76.81;97419.09;4901991;29;20048;-80
2020/12/18 10:54:47;;;;;;;14.90;10.95;;;;;;;6.52;77.06;97420.19;4899653;29;20052;-80
2020/12/18 10:57:14;;;;;;;14.48;10.75;;;;;;;6.60;76.60;97417.75;4901410;29;20048;-80
2020/12/18 10:59:43;;;;;;;17.58;12.02;;;;;;;6.72;76.78;97415.00;4902013;29;20096;-80
2020/12/18 11:02:10;;;;;;;13.63;10.48;;;;;;;6.84;76.14;97419.06;4910031;29;20087;-79
2020/12/18 11:04:37;;;;;;;15.70;10.45;;;;;;;6.94;75.62;97427.66;4904919;29;20496;-80
2020/12/18 11:07:04;;;;;;;18.35;12.32;;;;;;;7.06;75.51;97425.72;4903007;29;20072;-80
2020/12/18 11:09:43;;;;;;;14.75;9.73;;;;;;;7.19;74.50;97423.69;4911778;29;20062;-80
2020/12/18 11:12:10;;;;;;;14.48;10.30;;;;;;;7.33;74.67;97417.22;4922023;29;20036;-79
2020/12/18 11:14:38;;;;;;;16.88;11.18;;;;;;;7.46;74.36;97421.28;4931222;29;20032;-80
2020/12/18 11:17:06;;;;;;;15.02;11.05;;;;;;;7.59;73.89;97414.81;4941114;29;20063;-80
2020/12/18 11:19:35;;;;;;;15.30;11.18;;;;;;;7.68;73.65;97410.53;4926819;29;20108;-79
2020/12/18 11:22:02;;;;;;;15.50;10.95;;;;;;;7.81;73.52;97415.41;4916847;29;20135;-80
2020/12/18 11:24:29;;;;;;;15.27;10.55;;;;;;;7.92;72.91;97406.59;4915661;29;20047;-80
2020/12/18 11:26:56;;;;;;;13.93;10.68;;;;;;;8.05;72.46;97409.69;4914363;29;20044;-80
2020/12/18 11:29:23;;;;;;;14.05;10.73;;;;;;;8.16;72.14;97396.47;4913937;29;20045;-80
2020/12/18 11:31:49;;;;;;;12.43;10.02;;;;;;;8.30;72.45;97399.53;4907086;29;20052;-79
2020/12/18 11:34:18;;;;;;;11.02;9.18;;;;;;;8.47;71.65;97396.16;4905818;29;20041;-81
2020/12/18 11:36:45;;;;;;;12.93;9.10;;;;;;;8.55;71.22;97393.63;4916357;29;20056;-80